Time;durP1;ratioP1;P1;durP2;ratioP2;P2;SDS_P1;SDS_P2;PMS_P1;PMS_P2;Temp;Humidity;BMP_temperature;BMP_pressure;BME280_temperature;BME280_humidity;BME280_pressure;Samples;Min_cycle;Max_cycle;Signal;HPM_P1;HPM_P2
2021/05/04 00:00:51;;;;;;;;;;;;;;;14.18;57.14;101120.44;4978622;28;20372;-80
2021/05/04 00:03:36;;;;;;;;;;;;;;;14.14;57.63;101120.31;4977640;28;19913;-80
2021/05/04 00:06:21;;;;;;;;;;;;;;;14.15;57.55;101110.97;4975590;28;19914;-80
2021/05/04 00:09:05;;;;;;;;;;;;;;;14.17;57.68;101113.41;4980227;28;19918;-81
2021/05/04 00:11:51;;;;;;;;;;;;;;;14.14;57.74;101115.63;4974834;28;19914;-83
2021/05/04 00:14:35;;;;;;;;;;;;;;;14.09;58.14;101123.22;4975831;28;19918;-80
2021/05/04 00:17:20;;;;;;;;;;;;;;;14.09;58.38;101117.75;4978997;28;19914;-80
2021/05/04 00:26:12;;;;;;;;;;;;;;;14.10;58.43;101114.69;4977261;28;20396;-81
2021/05/04 00:28:57;;;;;;;;;;;;;;;14.11;58.65;101107.31;4996665;23;19923;-79
2021/05/04 00:31:42;;;;;;;;;;;;;;;14.16;58.44;101100.84;4948283;28;20297;-80
2021/05/04 00:34:27;;;;;;;;;;;;;;;14.10;58.70;101100.22;4938765;29;19919;-79
2021/05/04 00:37:12;;;;;;;;;;;;;;;14.03;58.96;101098.00;4961605;28;19918;-80
2021/05/04 00:39:56;;;;;;;;;;;;;;;14.04;58.94;101090.59;4967918;28;19914;-79
2021/05/04 00:42:41;;;;;;;;;;;;;;;14.08;58.94;101083.31;4974435;28;20380;-79
2021/05/04 00:45:26;;;;;;;;;;;;;;;14.09;58.50;101091.22;4975063;28;20380;-80
2021/05/04 00:48:11;;;;;;;;;;;;;;;14.07;58.70;101081.72;4959191;28;20377;-79
2021/05/04 00:50:57;;;;;;;;;;;;;;;14.01;58.75;101083.06;4956016;28;19922;-79
2021/05/04 00:53:43;;;;;;;;;;;;;;;13.97;59.11;101073.88;4955761;28;19922;-80
2021/05/04 00:56:28;;;;;;;;;;;;;;;13.92;59.29;101074.06;4971482;28;19914;-79
2021/05/04 00:59:13;;;;;;;;;;;;;;;13.83;59.58;101070.59;4943935;29;19922;-79
2021/05/04 01:05:01;;;;;;;;;;;;;;;13.65;59.74;101069.84;4959196;28;19914;-79
2021/05/04 01:07:46;;;;;;;;;;;;;;;13.61;59.88;101066.97;4952934;28;19914;-79
2021/05/04 01:10:32;;;;;;;;;;;;;;;13.55;60.21;101059.28;4944899;28;19918;-80
2021/05/04 01:13:16;;;;;;;;;;;;;;;13.52;60.61;101059.91;4957312;28;19915;-79
2021/05/04 01:16:02;;;;;;;;;;;;;;;13.50;60.53;101054.81;4956745;28;19933;-79
2021/05/04 01:18:46;;;;;;;;;;;;;;;13.37;60.78;101058.53;4960978;28;19914;-79
2021/05/04 01:21:31;;;;;;;;;;;;;;;13.40;60.73;101052.44;4975495;28;19914;-79
2021/05/04 01:24:16;;;;;;;;;;;;;;;13.37;60.85;101042.13;4957046;28;19914;-79
2021/05/04 01:27:01;;;;;;;;;;;;;;;13.36;61.12;101034.28;4955207;28;20296;-80
2021/05/04 01:29:45;;;;;;;;;;;;;;;13.29;61.04;101042.97;4968634;28;19914;-80
2021/05/04 01:32:31;;;;;;;;;;;;;;;13.26;61.37;101038.13;4974938;28;19914;-80
2021/05/04 01:35:15;;;;;;;;;;;;;;;13.23;61.60;101027.88;4957328;28;19918;-80
2021/05/04 01:38:19;;;;;;;;;;;;;;;13.21;61.48;101027.38;4945969;28;19914;-80
2021/05/04 01:41:03;;;;;;;;;;;;;;;13.23;61.47;101025.94;4967650;28;19914;-79
2021/05/04 01:44:08;;;;;;;;;;;;;;;13.18;61.54;101022.59;4960743;28;19922;-80
2021/05/04 01:46:53;;;;;;;;;;;;;;;13.16;61.58;101024.81;4969850;28;19926;-80
2021/05/04 01:49:37;;;;;;;;;;;;;;;13.19;61.15;101019.53;4957622;28;19914;-80
2021/05/04 01:52:22;;;;;;;;;;;;;;;13.14;61.46;101016.97;4952211;28;20392;-80
2021/05/04 01:55:09;;;;;;;;;;;;;;;13.10;61.61;101017.94;4955411;29;19923;-80
2021/05/04 02:00:57;;;;;;;;;;;;;;;13.07;61.51;101004.91;4960100;28;19914;-80
2021/05/04 02:03:42;;;;;;;;;;;;;;;13.05;61.81;101007.19;4956819;28;19919;-79
2021/05/04 02:06:27;;;;;;;;;;;;;;;13.01;61.95;101003.47;4967886;28;19914;-80
2021/05/04 02:09:11;;;;;;;;;;;;;;;13.04;61.77;101005.56;4960829;28;19914;-79
2021/05/04 02:11:56;;;;;;;;;;;;;;;12.97;62.00;100991.59;4959936;28;19914;-79
2021/05/04 02:14:41;;;;;;;;;;;;;;;12.94;61.96;100997.72;4964512;28;19919;-79
2021/05/04 02:17:45;;;;;;;;;;;;;;;12.91;62.09;100992.88;4958818;28;19914;-79
2021/05/04 02:20:29;;;;;;;;;;;;;;;12.88;62.09;100999.00;4954837;28;19914;-79
2021/05/04 02:23:33;;;;;;;;;;;;;;;12.93;61.51;100993.38;4941913;29;19919;-79
2021/05/04 02:26:18;;;;;;;;;;;;;;;12.93;61.62;100993.38;4942609;28;20297;-79
2021/05/04 02:29:02;;;;;;;;;;;;;;;12.86;61.94;100988.41;4945382;28;20311;-80
2021/05/04 02:31:47;;;;;;;;;;;;;;;12.84;61.60;100975.09;4941224;29;20373;-80
2021/05/04 02:34:33;;;;;;;;;;;;;;;12.85;61.62;100981.34;4952033;28;19918;-80
2021/05/04 02:37:17;;;;;;;;;;;;;;;12.79;61.64;100972.53;4975828;28;19914;-79
2021/05/04 02:40:04;;;;;;;;;;;;;;;12.67;62.18;100966.94;4954629;28;19914;-80
2021/05/04 02:42:49;;;;;;;;;;;;;;;12.56;62.48;100967.56;4949489;28;19914;-80
2021/05/04 02:45:34;;;;;;;;;;;;;;;12.63;61.94;100959.72;4962480;28;19914;-80
2021/05/04 02:48:19;;;;;;;;;;;;;;;12.57;62.09;100963.72;4957465;28;19914;-79
2021/05/04 02:51:05;;;;;;;;;;;;;;;12.57;62.06;100958.28;4956382;29;19914;-80
2021/05/04 02:54:08;;;;;;;;;;;;;;;12.53;61.93;100952.66;4946479;29;19914;-80
2021/05/04 02:56:53;;;;;;;;;;;;;;;12.46;62.11;100955.06;4959639;28;19914;-80
2021/05/04 02:59:56;;;;;;;;;;;;;;;12.44;62.31;100943.69;4952875;29;19915;-79
2021/05/04 03:02:40;;;;;;;;;;;;;;;12.42;62.27;100940.47;4964380;28;19914;-79
2021/05/04 03:05:25;;;;;;;;;;;;;;;12.46;62.02;100951.53;4953331;28;19914;-79
2021/05/04 03:08:10;;;;;;;;;;;;;;;12.43;62.02;100947.53;4971536;28;19914;-79
2021/05/04 03:11:13;;;;;;;;;;;;;;;12.47;61.83;100943.03;4970379;28;19914;-79
2021/05/04 03:13:58;;;;;;;;;;;;;;;12.42;62.00;100945.94;4940507;29;19919;-79
2021/05/04 03:16:43;;;;;;;;;;;;;;;12.39;61.96;100944.63;4951730;29;19918;-80
2021/05/04 03:19:27;;;;;;;;;;;;;;;12.37;61.76;100932.47;4948541;28;20312;-79
2021/05/04 03:22:12;;;;;;;;;;;;;;;12.36;61.77;100936.31;4960567;28;20296;-79
2021/05/04 03:28:00;;;;;;;;;;;;;;;12.37;61.50;100932.47;4956335;28;19918;-79
2021/05/04 03:31:03;;;;;;;;;;;;;;;12.40;61.37;100923.63;4938274;29;19919;-79
2021/05/04 03:33:47;;;;;;;;;;;;;;;12.29;61.99;100925.09;4964367;28;19913;-79
2021/05/04 03:36:33;;;;;;;;;;;;;;;12.23;62.18;100927.19;4969446;28;19915;-79
2021/05/04 03:39:17;;;;;;;;;;;;;;;12.27;62.06;100919.94;4964179;28;19914;-79
2021/05/04 03:42:03;;;;;;;;;;;;;;;12.23;62.24;100923.66;4962131;28;19918;-80
2021/05/04 03:44:47;;;;;;;;;;;;;;;12.21;62.07;100920.44;4965858;28;19915;-79
2021/05/04 03:47:32;;;;;;;;;;;;;;;12.22;62.16;100917.38;4967103;28;20404;-80
2021/05/04 03:50:18;;;;;;;;;;;;;;;12.25;61.90;100916.72;4958542;28;19914;-79
2021/05/04 03:53:03;;;;;;;;;;;;;;;12.17;62.13;100917.53;4974171;28;19914;-79
2021/05/04 03:55:48;;;;;;;;;;;;;;;12.26;61.79;100921.06;4958610;28;19918;-79
2021/05/04 03:58:32;;;;;;;;;;;;;;;12.23;62.02;100920.91;4958500;28;19914;-79
2021/05/04 04:01:17;;;;;;;;;;;;;;;12.19;61.96;100918.00;4956341;28;19933;-79
2021/05/04 04:04:02;;;;;;;;;;;;;;;12.20;62.11;100911.44;4959485;28;19914;-79
2021/05/04 04:06:48;;;;;;;;;;;;;;;12.24;61.77;100912.41;4962913;28;20289;-79
2021/05/04 04:09:34;;;;;;;;;;;;;;;12.29;61.73;100912.22;4974413;28;19913;-79
2021/05/04 04:12:39;;;;;;;;;;;;;;;12.24;61.86;100917.06;4937010;29;20325;-79
2021/05/04 04:15:24;;;;;;;;;;;;;;;12.18;62.11;100916.44;4939321;29;19923;-80
2021/05/04 04:18:09;;;;;;;;;;;;;;;12.21;62.06;100918.50;4949333;28;19914;-79
2021/05/04 04:20:54;;;;;;;;;;;;;;;12.15;62.10;100918.97;4954090;28;19915;-80
2021/05/04 04:23:38;;;;;;;;;;;;;;;12.17;62.32;100912.09;4973820;28;19914;-79
2021/05/04 04:26:42;;;;;;;;;;;;;;;12.21;62.15;100917.69;4947306;29;19918;-80
2021/05/04 04:29:26;;;;;;;;;;;;;;;12.23;62.02;100910.00;4948521;28;19923;-79
2021/05/04 04:32:11;;;;;;;;;;;;;;;12.24;62.36;100914.34;4959632;28;19914;-79
2021/05/04 04:34:56;;;;;;;;;;;;;;;12.27;62.26;100919.16;4955232;29;19919;-79
2021/05/04 04:37:40;;;;;;;;;;;;;;;12.33;62.26;100921.41;4959118;28;19914;-79
2021/05/04 04:40:25;;;;;;;;;;;;;;;12.38;62.52;100917.69;4953301;28;19922;-78
2021/05/04 04:43:10;;;;;;;;;;;;;;;12.41;62.17;100914.31;4961026;28;20384;-78
2021/05/04 04:45:55;;;;;;;;;;;;;;;12.42;62.07;100921.38;4960120;28;19913;-80
2021/05/04 04:48:39;;;;;;;;;;;;;;;12.52;62.47;100922.97;4965527;28;19918;-80
2021/05/04 04:51:24;;;;;;;;;;;;;;;12.53;62.31;100933.56;4972203;28;19913;-81
2021/05/04 04:54:09;;;;;;;;;;;;;;;12.56;62.55;100935.66;4978016;28;19915;-80
2021/05/04 04:56:54;;;;;;;;;;;;;;;12.61;62.44;100943.66;4963844;28;19915;-81
2021/05/04 04:59:39;;;;;;;;;;;;;;;12.79;61.88;100944.44;4962289;28;19914;-82
2021/05/04 05:02:24;;;;;;;;;;;;;;;12.73;62.45;100952.00;4962981;28;20308;-82
2021/05/04 05:05:09;;;;;;;;;;;;;;;13.01;62.32;100941.47;4944731;28;19915;-80
2021/05/04 05:07:53;;;;;;;;;;;;;;;12.92;62.44;100953.56;4944554;29;20392;-81
2021/05/04 05:10:38;;;;;;;;;;;;;;;12.94;62.63;100951.31;4957737;28;19915;-81
2021/05/04 05:13:22;;;;;;;;;;;;;;;12.90;62.92;100956.59;4959973;28;19920;-80
2021/05/04 05:16:07;;;;;;;;;;;;;;;12.90;63.14;100956.59;4957918;28;19918;-81
2021/05/04 05:18:52;;;;;;;;;;;;;;;12.92;63.15;100959.00;4960302;28;19914;-79
2021/05/04 05:21:37;;;;;;;;;;;;;;;13.02;63.11;100964.13;4940233;29;20300;-80
2021/05/04 05:24:41;;;;;;;;;;;;;;;13.10;62.78;100963.31;4947709;29;19914;-79
2021/05/04 05:27:30;;;;;;;;;;;;;;;13.17;62.80;100960.91;4959342;28;19915;-79
2021/05/04 05:30:15;;;;;;;;;;;;;;;13.19;63.34;100958.66;4956191;28;19923;-79
2021/05/04 05:33:00;;;;;;;;;;;;;;;13.22;63.18;100955.25;4954132;28;19914;-79
2021/05/04 05:35:45;;;;;;;;;;;;;;;13.23;63.54;100956.88;4969453;28;20392;-79
2021/05/04 05:38:30;;;;;;;;;;;;;;;13.36;63.86;100958.56;4971012;28;19914;-80
2021/05/04 05:41:15;;;;;;;;;;;;;;;13.26;64.42;100957.00;4955108;28;20300;-79
2021/05/04 05:43:59;;;;;;;;;;;;;;;13.36;64.58;100964.03;4946917;28;19915;-80
2021/05/04 05:46:44;;;;;;;;;;;;;;;13.41;64.30;100954.88;4942936;29;20385;-80
2021/05/04 05:49:28;;;;;;;;;;;;;;;13.52;64.10;100961.56;4924562;29;20020;-79
2021/05/04 05:52:13;;;;;;;;;;;;;;;13.63;63.69;100958.13;4940066;29;20313;-79
2021/05/04 05:58:01;;;;;;;;;;;;;;;13.67;63.07;100948.16;4936102;29;19915;-79
2021/05/04 06:00:46;;;;;;;;;;;;;;;13.59;63.10;100948.19;4936527;29;19914;-80
2021/05/04 06:03:32;;;;;;;;;;;;;;;13.61;63.21;100951.41;4937532;29;19915;-79
2021/05/04 06:06:18;;;;;;;;;;;;;;;13.63;63.48;100958.13;4936282;29;19914;-79
2021/05/04 06:09:03;;;;;;;;;;;;;;;13.68;63.52;100963.41;4939557;29;20308;-79
2021/05/04 06:11:48;;;;;;;;;;;;;;;13.74;63.73;100965.97;4937640;29;19918;-81
2021/05/04 06:14:32;;;;;;;;;;;;;;;13.78;63.79;100956.78;4936201;29;19919;-80
2021/05/04 06:17:36;;;;;;;;;;;;;;;13.80;63.60;100962.72;4939430;29;19915;-80
2021/05/04 06:20:21;;;;;;;;;;;;;;;13.95;62.93;100964.06;4936603;29;20197;-80
2021/05/04 06:23:06;;;;;;;;;;;;;;;14.06;63.06;100971.56;4934865;29;19922;-80
2021/05/04 06:25:51;;;;;;;;;;;;;;;14.19;62.22;100977.91;4938896;29;19915;-80
2021/05/04 06:28:36;;;;;;;;;;;;;;;14.26;61.48;100980.09;4936684;29;19914;-81
2021/05/04 06:31:21;;;;;;;;;;;;;;;14.43;60.69;100977.25;4995680;23;19922;-81
2021/05/04 06:34:09;;;;;;;;;;;;;;;14.47;61.14;100973.53;4992206;28;19922;-80
2021/05/04 06:36:54;;;;;;;;;;;;;;;14.52;60.63;100972.53;4996809;28;20377;-80
2021/05/04 06:39:39;;;;;;;;;;;;;;;14.65;60.38;100970.63;4993642;28;20464;-79
2021/05/04 06:42:23;;;;;;;;;;;;;;;14.73;59.94;100967.81;4998192;28;19914;-79
2021/05/04 06:45:08;;;;;;;;;;;;;;;14.95;58.82;100978.38;4996854;28;19913;-78
2021/05/04 06:47:53;;;;;;;;;;;;;;;15.12;56.34;100976.59;4995130;28;19914;-79
2021/05/04 06:50:57;;;;;;;;;;;;;;;15.25;56.92;100973.53;4996951;28;19917;-81
2021/05/04 06:53:42;;;;;;;;;;;;;;;15.25;55.89;100968.06;5003343;28;19913;-80
2021/05/04 06:56:27;;;;;;;;;;;;;;;15.28;56.68;100966.59;4998275;28;19917;-80
2021/05/04 06:59:12;;;;;;;;;;;;;;;15.35;56.59;100961.34;5001782;28;19914;-80
2021/05/04 07:02:16;;;;;;;;;;;;;;;15.48;55.95;100964.91;4996625;28;19914;-79
2021/05/04 07:05:02;;;;;;;;;;;;;;;15.53;55.62;100964.69;4999088;28;19914;-80
2021/05/04 07:08:08;;;;;;;;;;;;;;;15.70;54.08;100959.78;5001246;28;19913;-81
2021/05/04 07:10:52;;;;;;;;;;;;;;;15.84;53.11;100953.94;4998043;28;19914;-81
2021/05/04 07:13:37;;;;;;;;;;;;;;;16.09;53.89;100962.94;4996324;28;19917;-81
2021/05/04 07:16:22;;;;;;;;;;;;;;;16.15;54.20;100967.81;4999861;28;19917;-81
2021/05/04 07:19:07;;;;;;;;;;;;;;;16.24;53.74;100960.28;4998546;28;19913;-80
2021/05/04 07:22:11;;;;;;;;;;;;;;;16.40;50.70;100954.06;4996346;28;20378;-82
2021/05/04 07:24:56;;;;;;;;;;;;;;;16.57;50.04;100956.50;4999298;28;19913;-81
2021/05/04 07:28:00;;;;;;;;;;;;;;;16.62;48.40;100964.50;5002898;28;19914;-80
2021/05/04 07:30:44;;;;;;;;;;;;;;;16.74;50.90;100956.22;4984860;28;20294;-80
2021/05/04 07:33:29;;;;;;;;;;;;;;;16.86;50.76;100947.94;4978882;28;19917;-80
2021/05/04 07:36:14;;;;;;;;;;;;;;;16.90;50.16;100953.53;4977011;28;19917;-80
2021/05/04 07:38:58;;;;;;;;;;;;;;;17.06;48.14;100951.59;4980075;28;19916;-80
2021/05/04 07:44:46;;;;;;;;;;;;;;;17.10;47.02;100941.50;4976481;28;20295;-79
2021/05/04 07:47:31;;;;;;;;;;;;;;;17.22;47.37;100935.13;4980295;28;19914;-79
2021/05/04 07:50:17;;;;;;;;;;;;;;;17.22;47.59;100930.41;4978336;28;19914;-79
2021/05/04 07:53:01;;;;;;;;;;;;;;;17.28;46.35;100931.72;4976369;28;19914;-79
2021/05/04 07:55:45;;;;;;;;;;;;;;;17.36;46.01;100917.03;4980886;28;20294;-80
2021/05/04 07:58:31;;;;;;;;;;;;;;;17.48;45.54;100921.59;4978475;28;20294;-79
2021/05/04 08:01:16;;;;;;;;;;;;;;;17.59;42.90;100917.19;4976786;28;19914;-79
2021/05/04 08:04:00;;;;;;;;;;;;;;;17.59;42.46;100919.94;4980169;28;19913;-78
2021/05/04 08:06:44;;;;;;;;;;;;;;;17.73;44.53;100914.75;4978624;28;20298;-78
2021/05/04 08:09:29;;;;;;;;;;;;;;;17.77;42.13;100914.88;4976956;28;19918;-79
2021/05/04 08:12:14;;;;;;;;;;;;;;;17.71;41.21;100910.78;4982195;28;19999;-78
2021/05/04 08:14:58;;;;;;;;;;;;;;;17.79;41.88;100909.78;4978804;28;20302;-77
2021/05/04 08:17:48;;;;;;;;;;;;;;;17.97;40.91;100908.25;4977770;28;19914;-81
2021/05/04 08:20:34;;;;;;;;;;;;;;;17.97;40.99;100908.25;4980739;28;19914;-78
2021/05/04 08:23:22;;;;;;;;;;;;;;;18.09;41.07;100901.78;4978402;28;19918;-79
2021/05/04 08:26:07;;;;;;;;;;;;;;;18.11;40.50;100902.22;4976593;28;20378;-78
2021/05/04 08:28:52;;;;;;;;;;;;;;;18.10;40.40;100906.13;4980617;28;19914;-79
2021/05/04 08:31:37;;;;;;;;;;;;;;;18.28;40.23;100910.06;4975913;28;19914;-78
2021/05/04 08:34:22;;;;;;;;;;;;;;;18.29;40.19;100911.66;4976487;28;20297;-80
2021/05/04 08:37:07;;;;;;;;;;;;;;;18.30;40.36;100911.28;4981484;28;19918;-78
2021/05/04 08:39:52;;;;;;;;;;;;;;;18.36;40.12;100909.84;4978907;28;20302;-79
2021/05/04 08:45:42;;;;;;;;;;;;;;;18.39;40.06;100908.31;4979672;28;19921;-81
2021/05/04 08:48:28;;;;;;;;;;;;;;;18.44;39.47;100912.75;4977998;28;19913;-79
2021/05/04 08:51:14;;;;;;;;;;;;;;;18.67;39.76;100919.13;4976038;28;20370;-78
2021/05/04 08:53:59;;;;;;;;;;;;;;;18.75;39.07;100907.06;4979934;28;19913;-79
2021/05/04 08:56:44;;;;;;;;;;;;;;;18.85;38.85;100906.47;4977848;28;19918;-79
2021/05/04 08:59:28;;;;;;;;;;;;;;;18.95;39.48;100911.38;4975906;28;19914;-79
2021/05/04 09:02:13;;;;;;;;;;;;;;;18.97;41.57;100914.56;4974806;28;20111;-79
2021/05/04 09:05:05;;;;;;;;;;;;;;;18.98;41.24;100909.84;4977788;28;19914;-79
2021/05/04 09:07:51;;;;;;;;;;;;;;;18.88;38.99;100903.00;4975757;28;19914;-79
2021/05/04 09:10:48;;;;;;;;;;;;;;;19.00;39.34;100902.78;4964645;28;19914;-81
2021/05/04 09:13:40;;;;;;;;;;;;;;;19.05;40.75;100904.44;4977137;28;19914;-80
2021/05/04 09:16:30;;;;;;;;;;;;;;;19.10;38.40;100899.41;4974736;28;19922;-80
2021/05/04 09:19:34;;;;;;;;;;;;;;;19.14;38.50;100894.00;4978612;28;19914;-81
2021/05/04 09:22:37;;;;;;;;;;;;;;;19.29;38.60;100906.03;4975596;28;19914;-80
2021/05/04 09:25:28;;;;;;;;;;;;;;;19.18;39.19;100892.88;4981054;28;19913;-78
2021/05/04 09:28:13;;;;;;;;;;;;;;;19.14;40.21;100885.72;4976989;28;19914;-79
2021/05/04 09:30:58;;;;;;;;;;;;;;;19.15;39.69;100884.53;4974973;28;19914;-77
2021/05/04 09:33:42;;;;;;;;;;;;;;;19.21;39.24;100894.09;4978716;28;19914;-78
2021/05/04 09:36:43;;;;;;;;;;;;;;;19.28;39.56;100883.19;4977080;28;19918;-75
2021/05/04 09:39:28;;;;;;;;;;;;;;;19.41;40.12;100878.25;4975090;28;19914;-77
2021/05/04 09:42:13;;;;;;;;;;;;;;;19.51;39.17;100874.88;4974306;28;20291;-76
2021/05/04 09:44:58;;;;;;;;;;;;;;;19.56;38.97;100866.28;4976265;28;19914;-77
2021/05/04 09:48:02;;;;;;;;;;;;;;;19.66;39.10;100875.91;4974144;28;19914;-76
2021/05/04 09:51:06;;;;;;;;;;;;;;;19.76;40.10;100864.22;4977129;28;19914;-76
2021/05/04 09:56:40;;;;;;;;;;;;;;;19.88;39.16;100858.47;4963779;28;19918;-76
2021/05/04 09:59:44;;;;;;;;;;;;;;;19.89;39.37;100846.25;4976169;28;19914;-77
2021/05/04 10:02:28;;;;;;;;;;;;;;;19.91;38.04;100847.47;4979036;28;20294;-76
2021/05/04 10:05:31;;;;;;;;;;;;;;;20.02;38.12;100851.16;4977694;28;19914;-77
2021/05/04 10:08:16;;;;;;;;;;;;;;;20.12;38.58;100846.13;4974622;28;20317;-77
2021/05/04 10:14:11;;;;;;;;;;;;;;;20.22;38.68;100835.22;4975648;28;19914;-77
2021/05/04 10:16:58;;;;;;;;;;;;;;;20.27;38.50;100834.88;4973760;28;19922;-76
2021/05/04 10:19:43;;;;;;;;;;;;;;;20.34;38.20;100835.00;4986155;28;19914;-76
2021/05/04 10:22:28;;;;;;;;;;;;;;;20.32;38.36;100822.72;4989946;28;19913;-80
2021/05/04 10:25:17;;;;;;;;;;;;;;;20.44;38.60;100828.00;4997318;28;19918;-78
2021/05/04 10:28:22;;;;;;;;;;;;;;;20.59;37.24;100817.88;4994540;28;20382;-76
2021/05/04 10:31:08;;;;;;;;;;;;;;;20.64;35.95;100809.22;4992435;28;19918;-76
2021/05/04 10:33:53;;;;;;;;;;;;;;;20.69;35.25;100809.69;4994769;28;19913;-78
2021/05/04 10:36:37;;;;;;;;;;;;;;;20.66;35.79;100806.88;4995545;28;19917;-79
2021/05/04 10:39:42;;;;;;;;;;;;;;;20.67;35.31;100814.00;4983443;28;19914;-77
2021/05/04 10:42:36;;;;;;;;;;;;;;;20.69;37.48;100806.13;4988352;28;19914;-77
2021/05/04 10:48:42;;;;;;;;;;;;;;;21.00;38.22;100793.75;4985398;28;20377;-77
2021/05/04 10:51:46;;;;;;;;;;;;;;;20.96;37.60;100785.44;4992544;28;19913;-77
2021/05/04 10:54:51;;;;;;;;;;;;;;;20.98;37.80;100780.28;4998077;28;19922;-76
2021/05/04 10:57:55;;;;;;;;;;;;;;;20.79;36.76;100775.00;4993284;28;20298;-78
2021/05/04 11:00:53;;;;;;;;;;;;;;;20.96;36.90;100776.34;4976209;28;19914;-77
2021/05/04 11:03:49;;;;;;;;;;;;;;;21.07;35.64;100758.66;4991461;28;19917;-76
2021/05/04 11:06:37;;;;;;;;;;;;;;;20.96;36.43;100755.00;4993681;28;19914;-77
2021/05/04 11:09:21;;;;;;;;;;;;;;;21.05;37.36;100749.13;4995413;28;19913;-77
2021/05/04 11:12:26;;;;;;;;;;;;;;;21.18;35.44;100748.44;4961231;28;19914;-77
2021/05/04 11:15:21;;;;;;;;;;;;;;;21.23;35.58;100745.31;4973371;28;20318;-77
2021/05/04 11:18:05;;;;;;;;;;;;;;;20.98;43.62;100741.56;4991692;28;19918;-77
2021/05/04 11:20:49;;;;;;;;;;;;;;;20.66;43.98;100748.84;4975956;28;19918;-77
2021/05/04 11:23:54;;;;;;;;;;;;;;;20.35;44.75;100736.34;4973179;28;20387;-78
2021/05/04 11:26:59;;;;;;;;;;;;;;;20.25;43.61;100731.50;4976732;28;20386;-77
2021/05/04 11:29:46;;;;;;;;;;;;;;;20.24;40.66;100736.22;4973691;28;19914;-77
2021/05/04 11:32:39;;;;;;;;;;;;;;;20.25;42.51;100721.25;4977585;28;19914;-77
2021/05/04 11:35:35;;;;;;;;;;;;;;;20.52;40.04;100718.34;4977639;28;19914;-76
2021/05/04 11:38:20;;;;;;;;;;;;;;;20.38;40.79;100708.75;4983931;28;19914;-77
2021/05/04 11:41:08;;;;;;;;;;;;;;;20.34;41.27;100713.47;4980253;28;19914;-76
2021/05/04 11:43:53;;;;;;;;;;;;;;;20.03;42.76;100720.22;4983375;28;19913;-78
2021/05/04 11:46:38;;;;;;;;;;;;;;;20.02;42.07;100709.56;4982521;28;20374;-77
2021/05/04 11:49:24;;;;;;;;;;;;;;;20.02;40.61;100707.59;4980145;28;19914;-77
2021/05/04 11:52:09;;;;;;;;;;;;;;;20.01;42.67;100699.72;4978602;28;19914;-77
2021/05/04 11:58:08;;;;;;;;;;;;;;;19.77;42.95;100695.50;4998865;28;19917;-77
2021/05/04 12:01:00;;;;;;;;;;;;;;;19.67;43.04;100689.84;4996628;28;19913;-79
2021/05/04 12:04:03;;;;;;;;;;;;;;;19.63;42.50;100681.56;4996290;28;20300;-77
2021/05/04 12:06:48;;;;;;;;;;;;;;;19.71;41.91;100674.16;4997506;28;19913;-77
2021/05/04 12:09:34;;;;;;;;;;;;;;;20.01;37.34;100669.34;5001609;28;19914;-77
2021/05/04 12:12:19;;;;;;;;;;;;;;;19.76;41.52;100669.06;4999385;28;19913;-78
2021/05/04 12:15:03;;;;;;;;;;;;;;;19.77;38.12;100653.31;4998299;28;19913;-78
2021/05/04 12:18:18;;;;;;;;;;;;;;;19.96;39.88;100651.13;5001851;28;19921;-77
2021/05/04 12:21:08;;;;;;;;;;;;;;;20.35;38.75;100643.25;4974303;28;19914;-76
2021/05/04 12:27:01;;;;;;;;;;;;;;;20.49;34.82;100639.78;5000406;28;20302;-76
2021/05/04 12:29:47;;;;;;;;;;;;;;;20.44;35.00;100629.88;4998133;28;19921;-77
2021/05/04 12:35:41;;;;;;;;;;;;;;;20.13;36.85;100613.03;4956113;28;19918;-77
2021/05/04 12:38:33;;;;;;;;;;;;;;;20.44;37.95;100616.06;4959908;28;19918;-77
2021/05/04 12:41:24;;;;;;;;;;;;;;;20.30;35.92;100612.38;4957618;28;19915;-77
2021/05/04 12:44:23;;;;;;;;;;;;;;;20.41;37.40;100608.56;4960778;28;19918;-77
2021/05/04 12:47:10;;;;;;;;;;;;;;;20.34;37.54;100600.22;4957363;28;19915;-77
2021/05/04 12:49:54;;;;;;;;;;;;;;;20.32;36.04;100594.28;4964813;28;19914;-77
2021/05/04 12:52:39;;;;;;;;;;;;;;;20.58;33.96;100589.69;4977059;28;19914;-77
2021/05/04 12:55:24;;;;;;;;;;;;;;;20.81;33.53;100595.78;4977703;28;19914;-77
2021/05/04 12:58:08;;;;;;;;;;;;;;;20.95;33.86;100583.97;4974836;28;20303;-77
2021/05/04 13:01:06;;;;;;;;;;;;;;;20.64;35.63;100585.41;4979705;28;19921;-77
2021/05/04 13:03:56;;;;;;;;;;;;;;;20.54;35.29;100575.88;4977324;28;19914;-77
2021/05/04 13:10:15;;;;;;;;;;;;;;;20.54;35.83;100572.31;4933883;29;19918;-77
2021/05/04 13:28:35;;;;;;;;;;;;;;;21.15;28.30;100539.06;4977899;28;19914;-77
2021/05/04 13:31:19;;;;;;;;;;;;;;;21.25;28.08;100530.00;4967856;28;19914;-77
2021/05/04 13:34:08;;;;;;;;;;;;;;;21.25;31.20;100530.00;4963776;28;19922;-77
2021/05/04 13:36:53;;;;;;;;;;;;;;;20.96;32.07;100525.53;4967600;28;19914;-77
2021/05/04 13:48:33;;;;;;;;;;;;;;;20.49;32.79;100505.19;4974104;28;19914;-77
2021/05/04 13:51:17;;;;;;;;;;;;;;;20.57;33.37;100505.25;4978359;28;20368;-77
2021/05/04 13:54:01;;;;;;;;;;;;;;;20.77;33.86;100498.22;4975864;28;19914;-77
2021/05/04 13:56:46;;;;;;;;;;;;;;;20.96;32.94;100488.81;4973880;28;19914;-77
2021/05/04 13:59:31;;;;;;;;;;;;;;;20.42;33.47;100488.59;4974882;28;19918;-77
2021/05/04 14:02:34;;;;;;;;;;;;;;;20.07;34.40;100480.88;4971527;28;19914;-78
2021/05/04 14:27:02;;;;;;;;;;;;;;;19.83;35.15;100450.34;4962845;28;20397;-77
2021/05/04 14:29:46;;;;;;;;;;;;;;;19.80;34.73;100451.91;4976409;28;19914;-77
2021/05/04 14:32:31;;;;;;;;;;;;;;;19.80;34.04;100437.31;4975900;28;20288;-77
2021/05/04 14:35:26;;;;;;;;;;;;;;;19.71;34.45;100434.13;4977406;28;19914;-77
2021/05/04 14:38:39;;;;;;;;;;;;;;;19.64;35.00;100438.41;4974413;28;19914;-77
2021/05/04 14:59:16;;;;;;;;;;;;;;;20.79;31.78;100410.16;4979924;28;19918;-88
2021/05/04 15:02:00;;;;;;;;;;;;;;;21.11;30.46;100407.47;4984114;28;19914;-85
2021/05/04 15:04:55;;;;;;;;;;;;;;;21.09;29.11;100413.38;4984615;28;19914;-85
2021/05/04 15:07:40;;;;;;;;;;;;;;;21.28;30.07;100415.78;4980858;28;19914;-85
2021/05/04 15:10:24;;;;;;;;;;;;;;;21.41;29.70;100404.34;4987380;28;19914;-84
2021/05/04 15:13:12;;;;;;;;;;;;;;;21.45;29.04;100405.91;4984864;28;19914;-84
2021/05/04 15:21:50;;;;;;;;;;;;;;;21.60;29.34;100390.06;4988997;28;19914;-87
2021/05/04 15:24:35;;;;;;;;;;;;;;;21.70;29.71;100386.50;4990514;28;19914;-89
2021/05/04 15:27:19;;;;;;;;;;;;;;;21.55;29.62;100384.94;5000717;28;19913;-84
2021/05/04 15:30:05;;;;;;;;;;;;;;;21.24;28.31;100384.56;5004965;28;19913;-90
2021/05/04 15:35:38;;;;;;;;;;;;;;;21.08;29.96;100375.84;4987010;28;19914;-90
2021/05/04 15:38:23;;;;;;;;;;;;;;;21.04;30.23;100375.06;4987016;28;19918;-90
2021/05/04 15:41:08;;;;;;;;;;;;;;;21.15;29.81;100369.56;4987390;28;20292;-90
2021/05/04 15:43:55;;;;;;;;;;;;;;;21.28;29.05;100366.00;4972322;28;19915;-83
2021/05/04 15:46:55;;;;;;;;;;;;;;;21.31;29.83;100361.66;4965269;28;20287;-87
2021/05/04 16:08:25;;;;;;;;;;;;;;;21.01;31.04;100331.63;4967855;28;19915;-90
2021/05/04 16:11:09;;;;;;;;;;;;;;;20.97;30.92;100324.50;4967328;28;19914;-90
2021/05/04 16:13:58;;;;;;;;;;;;;;;20.95;31.52;100324.09;4969301;28;19914;-90
2021/05/04 16:16:44;;;;;;;;;;;;;;;21.11;30.62;100328.06;4970213;28;19914;-89
2021/05/04 16:32:37;;;;;;;8.35;3.00;;;;;;;20.97;31.83;100303.19;5128598;28;20066;-90
2021/05/04 16:35:22;;;;;;;7.40;2.50;;;;;;;20.85;32.52;100298.84;5146731;27;20061;-90
2021/05/04 16:38:07;;;;;;;4.25;2.28;;;;;;;20.64;31.85;100284.22;5141890;27;20062;-89
2021/05/04 16:40:52;;;;;;;8.88;2.35;;;;;;;20.61;32.92;100285.00;5146810;27;20538;-89
2021/05/04 16:43:38;;;;;;;9.25;2.53;;;;;;;20.34;33.49;100279.84;5148809;27;20057;-90
2021/05/04 16:46:23;;;;;;;6.07;2.45;;;;;;;20.16;34.68;100276.22;5144042;27;20047;-89
2021/05/04 16:49:08;;;;;;;;;;;;;;;19.91;35.33;100278.88;5143887;27;20525;-90
2021/05/04 16:51:56;;;;;;;4.87;2.77;;;;;;;19.79;35.25;100270.16;5097487;28;19912;-89